• Join FlightAware (Why Join?)
  • Login
  • US Flag 
10:37AM EDT


 

Airport Tracker/Info


-or-


 

Live Flight TrackerFlight Track Log ✈ UCA596 ✈ 26-Feb-2014 ✈ KIAD - KBGM

Flight Track Log - Related Links

Times and Time Zones

All times are in EST time to prevent confusion due to time zone crossing. See the UCA596 flight status page for this flight to view local times or setup timezone preferences in your user account.

Time Position Orientation Groundspeed Altitude Reporting Facility
EST Latitude Longitude Course Direction KTS MPH feet Rate Location/Type
01:11PM 38.9833 -77.5167 North 169 194 2,900  Level Potomac TRACON
01:12PM 39.0167 -77.5000 21° North 176 203 4,600 1,740 Climbing Potomac TRACON
01:13PM 39.0858 -77.4983 North 179 206 7,200 1,680 Climbing Washington Center
01:14PM 39.1339 -77.4914 North 179 206 9,000 1,620 Climbing Washington Center
01:15PM 39.1842 -77.4875 North 179 206 10,400 1,440 Climbing Washington Center
01:16PM 39.4032 -77.4500 North  Level FlightAware Approximate
01:16PM 39.2383 -77.4833 North 184 212 11,900  Level Washington Center
01:17PM 39.2925 -77.4794 North 184 212 13,600 1,620 Climbing Washington Center
01:18PM 39.3467 -77.4756 North 184 212 15,200 1,440 Climbing Washington Center
01:19PM 39.4011 -77.4717 North 184 212 16,600 1,140 Climbing Washington Center
01:20PM 39.4617 -77.4678 North 194 223 17,600 840 Climbing Washington Center
01:22PM 39.5775 -77.4622 North 222 255 19,000 480 Climbing New York Center
01:23PM 39.6511 -77.4531 North 250 288 19,000  Level New York Center
01:24PM 39.7264 -77.4492 North 261 300 19,000  Level New York Center
01:25PM 39.8014 -77.4508 359° North 267 307 19,000  Level New York Center
01:26PM 39.8778 -77.4258 14° North 272 313 19,000  Level New York Center
01:27PM 39.9556 -77.3789 25° Northeast 301 346 19,000  Level New York Center
01:28PM 40.0306 -77.3400 22° Northeast 301 346 19,000  Level New York Center
01:29PM 40.1081 -77.2983 22° Northeast 301 346 19,000  Level New York Center
01:30PM 40.1833 -77.2567 23° Northeast 301 346 19,000  Level New York Center
01:31PM 40.2608 -77.2122 24° Northeast 301 346 19,000  Level New York Center
01:32PM 40.3381 -77.1731 21° North 301 346 19,000  Level New York Center
01:33PM 40.4069 -77.1331 24° Northeast 301 346 19,000  Level New York Center
01:34PM 40.4969 -77.0867 21° North 301 346 19,000  Level New York Center
01:35PM 40.5636 -77.0464 25° Northeast 301 346 19,000  Level New York Center
01:36PM 40.6494 -76.9994 23° Northeast 301 346 19,000  Level New York Center
01:37PM 40.7203 -76.9594 23° Northeast 301 346 19,000 -480 Level New York Center
01:38PM 40.8103 -76.9128 21° North 306 352 18,100 -840 Descending New York Center
01:39PM 40.8814 -76.8697 25° Northeast 306 352 17,400 -600 Descending New York Center
01:40PM 40.9650 -76.8222 23° Northeast 306 352 17,000 -240 Descending New York Center
01:41PM 41.0422 -76.7794 23° Northeast 301 346 17,000  Level New York Center
01:42PM 41.1153 -76.7392 23° Northeast 295 339 17,000  Level New York Center
01:43PM 41.1881 -76.6958 24° Northeast 290 334 17,000  Level New York Center
01:44PM 41.2589 -76.6553 23° Northeast 284 327 17,000  Level New York Center
01:45PM 41.3319 -76.6119 24° Northeast 284 327 17,000  Level New York Center
01:46PM 41.3983 -76.5761 22° Northeast 284 327 17,000 -60 Level New York Center
01:47PM 41.4797 -76.5306 23° Northeast 284 327 16,900 -720 Descending New York Center
01:48PM 41.5569 -76.4844 24° Northeast 284 327 15,600 -1,440 Descending New York Center
01:49PM 41.6317 -76.4436 22° Northeast 284 327 14,100 -1,500 Descending New York Center
01:50PM 41.6958 -76.4075 23° Northeast 279 321 12,700 -1,500 Descending New York Center
01:51PM 41.7608 -76.3544 31° Northeast 274 315 11,100 -1,680 Descending New York Center
01:52PM 41.8303 -76.2964 32° Northeast 269 310 9,400 -1,560 Descending New York Center
01:53PM 41.8908 -76.2456 32° Northeast 264 304 8,000 -1,500 Descending New York Center
01:54PM 41.9492 -76.1975 31° Northeast 259 298 6,500 -1,500 Descending New York Center
01:55PM 42.0011 -76.1544 32° Northeast 243 280 5,100 -1,260 Descending New York Center
01:56PM 42.0597 -76.1061 31° Northeast 243 280 4,000 -600 Descending New York Center
01:57PM 42.1114 -76.0656 30° Northeast 238 274 4,000 -180 Level New York Center
01:58PM 42.1569 -76.0244 34° Northeast 213 245 3,700 -360 Descending New York Center
01:59PM 42.1681 -75.9581 77° East 176 203 3,300 -480 Descending New York Center
02:00PM 42.1869 -75.9092 62° Northeast 164 189 2,800 -600 Descending New York Center
02:01PM 42.2067 -75.9331 318° Northwest 73 84 2,200 -300 Descending New York Center
02:02PM 42.2258 -75.9261 15° North 64 74 2,200  Level New York Center
02:04PM 42.2000 -75.9667 246° West  Level FlightAware Approximate
02:11PM 42.2084 -75.9796 246° West  Level Estimated
02:12PM 42.2084 -75.9796 246° West  Level Estimated